sensor_id;sensor_type;location;lat;lon;timestamp;temperature;humidity
41142;SHT31;63666;52.284;20.890;2023-03-21T00:01:17;21.01;43.34
41142;SHT31;63666;52.284;20.890;2023-03-21T00:03:56;21.01;43.32
41142;SHT31;63666;52.284;20.890;2023-03-21T00:06:32;21.01;43.31
41142;SHT31;63666;52.284;20.890;2023-03-21T00:09:11;21.02;43.29
41142;SHT31;63666;52.284;20.890;2023-03-21T00:11:54;21.03;43.29
41142;SHT31;63666;52.284;20.890;2023-03-21T00:14:32;21.03;43.23
41142;SHT31;63666;52.284;20.890;2023-03-21T00:17:08;21.01;43.23
41142;SHT31;63666;52.284;20.890;2023-03-21T00:19:45;20.98;43.26
41142;SHT31;63666;52.284;20.890;2023-03-21T00:22:23;21.00;43.26
41142;SHT31;63666;52.284;20.890;2023-03-21T00:25:03;21.00;43.22
41142;SHT31;63666;52.284;20.890;2023-03-21T00:27:41;20.99;43.22
41142;SHT31;63666;52.284;20.890;2023-03-21T00:30:38;20.95;43.23
41142;SHT31;63666;52.284;20.890;2023-03-21T00:33:17;20.93;43.27
41142;SHT31;63666;52.284;20.890;2023-03-21T00:35:55;20.95;43.20
41142;SHT31;63666;52.284;20.890;2023-03-21T00:38:36;20.91;43.30
41142;SHT31;63666;52.284;20.890;2023-03-21T00:41:14;20.93;43.22
41142;SHT31;63666;52.284;20.890;2023-03-21T00:44:12;20.89;43.26
41142;SHT31;63666;52.284;20.890;2023-03-21T00:46:50;20.86;43.30
41142;SHT31;63666;52.284;20.890;2023-03-21T00:49:37;20.86;43.29
41142;SHT31;63666;52.284;20.890;2023-03-21T00:52:15;20.87;43.26
41142;SHT31;63666;52.284;20.890;2023-03-21T00:55:10;20.89;43.20
41142;SHT31;63666;52.284;20.890;2023-03-21T00:57:50;20.85;43.23
41142;SHT31;63666;52.284;20.890;2023-03-21T01:00:33;20.80;43.32
41142;SHT31;63666;52.284;20.890;2023-03-21T01:03:12;20.81;43.29
41142;SHT31;63666;52.284;20.890;2023-03-21T01:05:55;20.84;43.21
41142;SHT31;63666;52.284;20.890;2023-03-21T01:08:38;20.81;43.24
41142;SHT31;63666;52.284;20.890;2023-03-21T01:11:25;20.76;43.36
41142;SHT31;63666;52.284;20.890;2023-03-21T01:14:07;20.75;43.37
41142;SHT31;63666;52.284;20.890;2023-03-21T01:16:53;20.75;43.31
41142;SHT31;63666;52.284;20.890;2023-03-21T01:19:33;20.74;43.32
41142;SHT31;63666;52.284;20.890;2023-03-21T01:22:21;20.73;43.32
41142;SHT31;63666;52.284;20.890;2023-03-21T01:25:01;20.76;43.27
41142;SHT31;63666;52.284;20.890;2023-03-21T01:27:52;20.70;43.37
41142;SHT31;63666;52.284;20.890;2023-03-21T01:30:29;20.69;43.40
41142;SHT31;63666;52.284;20.890;2023-03-21T01:33:12;20.70;43.32
41142;SHT31;63666;52.284;20.890;2023-03-21T01:35:53;20.70;43.36
41142;SHT31;63666;52.284;20.890;2023-03-21T01:38:42;20.68;43.43
41142;SHT31;63666;52.284;20.890;2023-03-21T01:41:23;20.65;43.45
41142;SHT31;63666;52.284;20.890;2023-03-21T01:44:17;20.66;43.41
41142;SHT31;63666;52.284;20.890;2023-03-21T01:46:53;20.69;43.36
41142;SHT31;63666;52.284;20.890;2023-03-21T01:49:47;20.67;43.37
41142;SHT31;63666;52.284;20.890;2023-03-21T01:52:28;20.64;43.41
41142;SHT31;63666;52.284;20.890;2023-03-21T01:55:09;20.65;43.39
41142;SHT31;63666;52.284;20.890;2023-03-21T01:57:48;20.63;43.40
41142;SHT31;63666;52.284;20.890;2023-03-21T02:00:36;20.64;43.41
41142;SHT31;63666;52.284;20.890;2023-03-21T02:03:15;20.64;43.42
41142;SHT31;63666;52.284;20.890;2023-03-21T02:06:06;20.61;43.45
41142;SHT31;63666;52.284;20.890;2023-03-21T02:08:50;20.60;43.48
41142;SHT31;63666;52.284;20.890;2023-03-21T02:11:28;20.64;43.35
41142;SHT31;63666;52.284;20.890;2023-03-21T02:14:04;20.62;43.40
41142;SHT31;63666;52.284;20.890;2023-03-21T02:17:00;20.60;43.42
41142;SHT31;63666;52.284;20.890;2023-03-21T02:19:50;20.57;43.49
41142;SHT31;63666;52.284;20.890;2023-03-21T02:26:36;20.61;43.33
41142;SHT31;63666;52.284;20.890;2023-03-21T02:29:41;20.65;43.28
41142;SHT31;63666;52.284;20.890;2023-03-21T02:36:18;20.53;43.47
41142;SHT31;63666;52.284;20.890;2023-03-21T02:39:03;20.56;43.39
41142;SHT31;63666;52.284;20.890;2023-03-21T02:41:46;20.59;43.29
41142;SHT31;63666;52.284;20.890;2023-03-21T02:44:37;20.54;43.38
41142;SHT31;63666;52.284;20.890;2023-03-21T02:47:19;20.60;43.20
41142;SHT31;63666;52.284;20.890;2023-03-21T02:50:00;20.57;43.24
41142;SHT31;63666;52.284;20.890;2023-03-21T02:52:47;20.56;43.28
41142;SHT31;63666;52.284;20.890;2023-03-21T02:55:27;20.57;43.27
41142;SHT31;63666;52.284;20.890;2023-03-21T02:58:08;20.58;43.21
41142;SHT31;63666;52.284;20.890;2023-03-21T03:00:47;20.56;43.23
41142;SHT31;63666;52.284;20.890;2023-03-21T03:03:26;20.62;43.13
41142;SHT31;63666;52.284;20.890;2023-03-21T03:06:08;20.60;43.11
41142;SHT31;63666;52.284;20.890;2023-03-21T03:08:57;20.62;43.10
41142;SHT31;63666;52.284;20.890;2023-03-21T03:11:52;20.57;43.15
41142;SHT31;63666;52.284;20.890;2023-03-21T03:14:46;20.56;43.18
41142;SHT31;63666;52.284;20.890;2023-03-21T03:17:41;20.58;43.09
41142;SHT31;63666;52.284;20.890;2023-03-21T03:20:26;20.55;43.13
41142;SHT31;63666;52.284;20.890;2023-03-21T03:23:15;20.57;43.09
41142;SHT31;63666;52.284;20.890;2023-03-21T03:25:59;20.54;43.11
41142;SHT31;63666;52.284;20.890;2023-03-21T03:28:40;20.58;43.10
41142;SHT31;63666;52.284;20.890;2023-03-21T03:31:20;20.56;43.09
41142;SHT31;63666;52.284;20.890;2023-03-21T03:34:03;20.51;43.17
41142;SHT31;63666;52.284;20.890;2023-03-21T03:36:45;20.53;43.11
41142;SHT31;63666;52.284;20.890;2023-03-21T03:39:29;20.50;43.18
41142;SHT31;63666;52.284;20.890;2023-03-21T03:42:12;20.53;43.10
41142;SHT31;63666;52.284;20.890;2023-03-21T03:45:01;20.53;43.10
41142;SHT31;63666;52.284;20.890;2023-03-21T03:47:39;20.56;43.03
41142;SHT31;63666;52.284;20.890;2023-03-21T03:50:27;20.53;43.06
41142;SHT31;63666;52.284;20.890;2023-03-21T03:53:11;20.55;43.03
41142;SHT31;63666;52.284;20.890;2023-03-21T03:55:53;20.55;43.05
41142;SHT31;63666;52.284;20.890;2023-03-21T03:58:35;20.53;43.09
41142;SHT31;63666;52.284;20.890;2023-03-21T04:01:16;20.55;43.01
41142;SHT31;63666;52.284;20.890;2023-03-21T04:03:58;20.54;43.06
41142;SHT31;63666;52.284;20.890;2023-03-21T04:06:43;20.55;43.06
41142;SHT31;63666;52.284;20.890;2023-03-21T04:09:21;20.55;43.13
41142;SHT31;63666;52.284;20.890;2023-03-21T04:12:12;20.53;43.37
41142;SHT31;63666;52.284;20.890;2023-03-21T04:14:50;20.52;43.48
41142;SHT31;63666;52.284;20.890;2023-03-21T04:17:40;20.53;43.47
41142;SHT31;63666;52.284;20.890;2023-03-21T04:20:22;20.50;43.49
41142;SHT31;63666;52.284;20.890;2023-03-21T04:23:08;20.48;43.50
41142;SHT31;63666;52.284;20.890;2023-03-21T04:25:46;20.48;43.43
41142;SHT31;63666;52.284;20.890;2023-03-21T04:28:26;20.48;43.41
41142;SHT31;63666;52.284;20.890;2023-03-21T04:31:06;20.49;43.37
41142;SHT31;63666;52.284;20.890;2023-03-21T04:33:56;20.47;43.38
41142;SHT31;63666;52.284;20.890;2023-03-21T04:36:36;20.48;43.32
41142;SHT31;63666;52.284;20.890;2023-03-21T04:39:16;20.48;43.34
41142;SHT31;63666;52.284;20.890;2023-03-21T04:41:55;20.48;43.39
41142;SHT31;63666;52.284;20.890;2023-03-21T04:44:34;20.49;43.37
41142;SHT31;63666;52.284;20.890;2023-03-21T04:47:11;20.46;43.43
41142;SHT31;63666;52.284;20.890;2023-03-21T04:49:49;20.47;43.43
41142;SHT31;63666;52.284;20.890;2023-03-21T04:52:30;20.46;43.42
41142;SHT31;63666;52.284;20.890;2023-03-21T04:55:11;20.42;43.55
41142;SHT31;63666;52.284;20.890;2023-03-21T04:57:53;20.47;43.48
41142;SHT31;63666;52.284;20.890;2023-03-21T05:00:31;20.51;43.49
41142;SHT31;63666;52.284;20.890;2023-03-21T05:03:11;20.57;43.40
41142;SHT31;63666;52.284;20.890;2023-03-21T05:05:50;20.64;43.27
41142;SHT31;63666;52.284;20.890;2023-03-21T05:08:26;20.73;43.13
41142;SHT31;63666;52.284;20.890;2023-03-21T05:11:03;20.81;43.05
41142;SHT31;63666;52.284;20.890;2023-03-21T05:13:41;20.86;42.95
41142;SHT31;63666;52.284;20.890;2023-03-21T05:16:20;20.91;42.91
41142;SHT31;63666;52.284;20.890;2023-03-21T05:19:01;20.97;42.87
41142;SHT31;63666;52.284;20.890;2023-03-21T05:21:46;21.03;42.79
41142;SHT31;63666;52.284;20.890;2023-03-21T05:24:26;21.08;42.71
41142;SHT31;63666;52.284;20.890;2023-03-21T05:27:05;21.12;42.68
41142;SHT31;63666;52.284;20.890;2023-03-21T05:29:44;21.18;42.60
41142;SHT31;63666;52.284;20.890;2023-03-21T05:32:24;21.22;42.54
41142;SHT31;63666;52.284;20.890;2023-03-21T05:35:02;21.28;42.48
41142;SHT31;63666;52.284;20.890;2023-03-21T05:37:40;21.31;42.43
41142;SHT31;63666;52.284;20.890;2023-03-21T05:40:16;21.34;42.39
41142;SHT31;63666;52.284;20.890;2023-03-21T05:42:52;21.36;42.37
41142;SHT31;63666;52.284;20.890;2023-03-21T05:45:33;21.40;42.27
41142;SHT31;63666;52.284;20.890;2023-03-21T05:48:13;21.43;42.21
41142;SHT31;63666;52.284;20.890;2023-03-21T05:50:53;21.46;42.18
41142;SHT31;63666;52.284;20.890;2023-03-21T05:53:31;21.45;42.18
41142;SHT31;63666;52.284;20.890;2023-03-21T05:56:11;21.42;42.24
41142;SHT31;63666;52.284;20.890;2023-03-21T05:58:51;21.40;42.28
41142;SHT31;63666;52.284;20.890;2023-03-21T06:01:27;21.39;42.26
41142;SHT31;63666;52.284;20.890;2023-03-21T06:04:07;21.36;42.34
41142;SHT31;63666;52.284;20.890;2023-03-21T06:06:45;21.32;42.48
41142;SHT31;63666;52.284;20.890;2023-03-21T06:09:26;21.30;42.79
41142;SHT31;63666;52.284;20.890;2023-03-21T06:12:02;21.28;43.05
41142;SHT31;63666;52.284;20.890;2023-03-21T06:14:40;21.25;43.11
41142;SHT31;63666;52.284;20.890;2023-03-21T06:17:19;21.24;43.13
41142;SHT31;63666;52.284;20.890;2023-03-21T06:19:56;21.24;43.06
41142;SHT31;63666;52.284;20.890;2023-03-21T06:22:35;21.24;43.09
41142;SHT31;63666;52.284;20.890;2023-03-21T06:25:12;21.24;43.25
41142;SHT31;63666;52.284;20.890;2023-03-21T06:27:49;21.27;44.00
41142;SHT31;63666;52.284;20.890;2023-03-21T06:30:26;21.36;45.38
41142;SHT31;63666;52.284;20.890;2023-03-21T06:33:05;21.37;45.12
41142;SHT31;63666;52.284;20.890;2023-03-21T06:35:44;21.38;45.17
41142;SHT31;63666;52.284;20.890;2023-03-21T06:38:27;21.33;44.94
41142;SHT31;63666;52.284;20.890;2023-03-21T06:41:09;21.28;44.93
41142;SHT31;63666;52.284;20.890;2023-03-21T06:43:47;21.33;45.32
41142;SHT31;63666;52.284;20.890;2023-03-21T06:46:23;21.26;44.82
41142;SHT31;63666;52.284;20.890;2023-03-21T06:49:04;21.22;44.73
41142;SHT31;63666;52.284;20.890;2023-03-21T06:51:42;21.20;44.76
41142;SHT31;63666;52.284;20.890;2023-03-21T06:54:22;21.19;44.69
41142;SHT31;63666;52.284;20.890;2023-03-21T06:57:00;21.20;44.54
41142;SHT31;63666;52.284;20.890;2023-03-21T06:59:36;21.19;44.42
41142;SHT31;63666;52.284;20.890;2023-03-21T07:02:16;21.21;44.29
41142;SHT31;63666;52.284;20.890;2023-03-21T07:04:54;21.23;44.20
41142;SHT31;63666;52.284;20.890;2023-03-21T07:07:34;21.27;44.09
41142;SHT31;63666;52.284;20.890;2023-03-21T07:10:12;21.35;43.91
41142;SHT31;63666;52.284;20.890;2023-03-21T07:12:53;21.46;43.65
41142;SHT31;63666;52.284;20.890;2023-03-21T07:15:35;21.58;43.39
41142;SHT31;63666;52.284;20.890;2023-03-21T07:18:15;21.67;43.19
41142;SHT31;63666;52.284;20.890;2023-03-21T07:20:55;21.72;43.05
41142;SHT31;63666;52.284;20.890;2023-03-21T07:23:32;21.78;42.95
41142;SHT31;63666;52.284;20.890;2023-03-21T07:26:14;21.85;42.82
41142;SHT31;63666;52.284;20.890;2023-03-21T07:28:51;21.92;42.66
41142;SHT31;63666;52.284;20.890;2023-03-21T07:31:30;21.97;42.52
41142;SHT31;63666;52.284;20.890;2023-03-21T07:34:07;22.04;42.45
41142;SHT31;63666;52.284;20.890;2023-03-21T07:36:48;22.10;42.28
41142;SHT31;63666;52.284;20.890;2023-03-21T07:39:28;22.12;42.21
41142;SHT31;63666;52.284;20.890;2023-03-21T07:42:04;22.14;42.20
41142;SHT31;63666;52.284;20.890;2023-03-21T07:44:42;22.16;42.16
41142;SHT31;63666;52.284;20.890;2023-03-21T07:47:22;22.19;42.09
41142;SHT31;63666;52.284;20.890;2023-03-21T07:49:59;22.23;42.00
41142;SHT31;63666;52.284;20.890;2023-03-21T07:52:37;22.23;41.96
41142;SHT31;63666;52.284;20.890;2023-03-21T07:55:18;22.22;41.99
41142;SHT31;63666;52.284;20.890;2023-03-21T07:57:55;22.22;41.98
41142;SHT31;63666;52.284;20.890;2023-03-21T08:00:34;22.20;42.01
41142;SHT31;63666;52.284;20.890;2023-03-21T08:03:14;22.21;42.01
41142;SHT31;63666;52.284;20.890;2023-03-21T08:05:53;22.20;41.99
41142;SHT31;63666;52.284;20.890;2023-03-21T08:08:30;22.18;42.00
41142;SHT31;63666;52.284;20.890;2023-03-21T08:11:10;22.14;42.02
41142;SHT31;63666;52.284;20.890;2023-03-21T08:13:55;22.13;42.02
41142;SHT31;63666;52.284;20.890;2023-03-21T08:16:34;22.14;42.02
41142;SHT31;63666;52.284;20.890;2023-03-21T08:19:11;22.17;41.97
41142;SHT31;63666;52.284;20.890;2023-03-21T08:21:52;22.19;41.88
41142;SHT31;63666;52.284;20.890;2023-03-21T08:24:32;22.20;41.87
41142;SHT31;63666;52.284;20.890;2023-03-21T08:27:12;22.22;41.84
41142;SHT31;63666;52.284;20.890;2023-03-21T08:29:52;22.26;41.78
41142;SHT31;63666;52.284;20.890;2023-03-21T08:32:30;22.37;41.58
41142;SHT31;63666;52.284;20.890;2023-03-21T08:35:09;22.44;41.40
41142;SHT31;63666;52.284;20.890;2023-03-21T08:37:46;22.44;41.40
41142;SHT31;63666;52.284;20.890;2023-03-21T08:40:23;22.44;41.41
41142;SHT31;63666;52.284;20.890;2023-03-21T08:43:04;22.42;41.41
41142;SHT31;63666;52.284;20.890;2023-03-21T08:45:45;22.42;41.41
41142;SHT31;63666;52.284;20.890;2023-03-21T08:48:25;22.39;41.48
41142;SHT31;63666;52.284;20.890;2023-03-21T08:51:05;22.36;41.51
41142;SHT31;63666;52.284;20.890;2023-03-21T08:53:45;22.35;41.50
41142;SHT31;63666;52.284;20.890;2023-03-21T08:56:21;22.32;41.53
41142;SHT31;63666;52.284;20.890;2023-03-21T08:58:58;22.30;41.59
41142;SHT31;63666;52.284;20.890;2023-03-21T09:01:36;22.30;41.60
41142;SHT31;63666;52.284;20.890;2023-03-21T09:04:18;22.30;41.59
41142;SHT31;63666;52.284;20.890;2023-03-21T09:06:57;22.33;41.50
41142;SHT31;63666;52.284;20.890;2023-03-21T09:09:34;22.38;41.41
41142;SHT31;63666;52.284;20.890;2023-03-21T09:12:12;22.39;41.35
41142;SHT31;63666;52.284;20.890;2023-03-21T09:14:49;22.44;41.27
41142;SHT31;63666;52.284;20.890;2023-03-21T09:17:34;22.43;41.26
41142;SHT31;63666;52.284;20.890;2023-03-21T09:22:52;22.35;41.36
41142;SHT31;63666;52.284;20.890;2023-03-21T09:25:43;22.32;41.40
41142;SHT31;63666;52.284;20.890;2023-03-21T09:28:19;22.30;41.50
41142;SHT31;63666;52.284;20.890;2023-03-21T09:30:55;22.30;41.49
41142;SHT31;63666;52.284;20.890;2023-03-21T09:33:34;22.36;41.34
41142;SHT31;63666;52.284;20.890;2023-03-21T09:36:12;22.35;41.36
41142;SHT31;63666;52.284;20.890;2023-03-21T09:38:52;22.35;41.33
41142;SHT31;63666;52.284;20.890;2023-03-21T09:41:36;22.37;41.30
41142;SHT31;63666;52.284;20.890;2023-03-21T09:44:40;22.35;41.29
41142;SHT31;63666;52.284;20.890;2023-03-21T09:47:25;22.33;41.30
41142;SHT31;63666;52.284;20.890;2023-03-21T09:50:05;22.30;41.37
41142;SHT31;63666;52.284;20.890;2023-03-21T09:52:48;22.28;41.39
41142;SHT31;63666;52.284;20.890;2023-03-21T09:55:29;22.28;41.36
41142;SHT31;63666;52.284;20.890;2023-03-21T09:58:14;22.25;41.40
41142;SHT31;63666;52.284;20.890;2023-03-21T10:00:59;22.21;41.49
41142;SHT31;63666;52.284;20.890;2023-03-21T10:03:54;22.19;41.51
41142;SHT31;63666;52.284;20.890;2023-03-21T10:06:32;22.17;41.57
41142;SHT31;63666;52.284;20.890;2023-03-21T10:09:14;22.17;41.52
41142;SHT31;63666;52.284;20.890;2023-03-21T10:11:54;22.18;41.56
41142;SHT31;63666;52.284;20.890;2023-03-21T10:14:36;22.18;41.50
41142;SHT31;63666;52.284;20.890;2023-03-21T10:17:19;22.23;41.41
41142;SHT31;63666;52.284;20.890;2023-03-21T10:20:09;22.28;41.31
41142;SHT31;63666;52.284;20.890;2023-03-21T10:22:51;22.33;41.21
41142;SHT31;63666;52.284;20.890;2023-03-21T10:25:31;22.39;41.11
41142;SHT31;63666;52.284;20.890;2023-03-21T10:28:12;22.46;40.98
41142;SHT31;63666;52.284;20.890;2023-03-21T10:30:56;22.48;40.94
41142;SHT31;63666;52.284;20.890;2023-03-21T10:33:36;22.50;40.89
41142;SHT31;63666;52.284;20.890;2023-03-21T10:36:16;22.55;40.80
41142;SHT31;63666;52.284;20.890;2023-03-21T10:39:01;22.61;40.71
41142;SHT31;63666;52.284;20.890;2023-03-21T10:41:41;22.64;40.65
41142;SHT31;63666;52.284;20.890;2023-03-21T10:44:20;22.67;40.60
41142;SHT31;63666;52.284;20.890;2023-03-21T10:47:04;22.64;40.63
41142;SHT31;63666;52.284;20.890;2023-03-21T10:49:43;22.60;40.69
41142;SHT31;63666;52.284;20.890;2023-03-21T10:52:44;22.59;40.71
41142;SHT31;63666;52.284;20.890;2023-03-21T10:55:25;22.65;40.60
41142;SHT31;63666;52.284;20.890;2023-03-21T10:58:07;22.68;40.57
41142;SHT31;63666;52.284;20.890;2023-03-21T11:00:51;22.68;40.54
41142;SHT31;63666;52.284;20.890;2023-03-21T11:03:34;22.63;40.62
41142;SHT31;63666;52.284;20.890;2023-03-21T11:06:16;22.62;40.61
41142;SHT31;63666;52.284;20.890;2023-03-21T11:09:03;22.62;40.62
41142;SHT31;63666;52.284;20.890;2023-03-21T11:11:47;22.61;40.60
41142;SHT31;63666;52.284;20.890;2023-03-21T11:14:30;22.57;40.68
41142;SHT31;63666;52.284;20.890;2023-03-21T11:17:16;22.54;40.72
41142;SHT31;63666;52.284;20.890;2023-03-21T11:20:04;22.57;40.67
41142;SHT31;63666;52.284;20.890;2023-03-21T11:22:49;22.61;40.73
41142;SHT31;63666;52.284;20.890;2023-03-21T11:25:36;22.66;40.62
41142;SHT31;63666;52.284;20.890;2023-03-21T11:28:15;22.75;40.47
41142;SHT31;63666;52.284;20.890;2023-03-21T11:30:55;22.68;40.56
41142;SHT31;63666;52.284;20.890;2023-03-21T11:33:35;22.56;40.73
41142;SHT31;63666;52.284;20.890;2023-03-21T11:36:30;22.50;40.79
41142;SHT31;63666;52.284;20.890;2023-03-21T11:39:20;22.48;40.80
41142;SHT31;63666;52.284;20.890;2023-03-21T11:45:09;22.48;40.80
41142;SHT31;63666;52.284;20.890;2023-03-21T11:47:47;22.51;40.74
41142;SHT31;63666;52.284;20.890;2023-03-21T11:50:28;22.50;40.70
41142;SHT31;63666;52.284;20.890;2023-03-21T11:53:19;22.47;40.74
41142;SHT31;63666;52.284;20.890;2023-03-21T11:56:17;22.45;40.79
41142;SHT31;63666;52.284;20.890;2023-03-21T12:05:35;22.43;40.84
41142;SHT31;63666;52.284;20.890;2023-03-21T12:08:19;22.49;40.73
41142;SHT31;63666;52.284;20.890;2023-03-21T12:11:07;22.51;40.80
41142;SHT31;63666;52.284;20.890;2023-03-21T12:13:56;22.53;40.76
41142;SHT31;63666;52.284;20.890;2023-03-21T12:16:44;22.57;40.57
41142;SHT31;63666;52.284;20.890;2023-03-21T12:19:42;22.63;40.36
41142;SHT31;63666;52.284;20.890;2023-03-21T12:22:33;22.70;40.28
41142;SHT31;63666;52.284;20.890;2023-03-21T12:25:23;22.78;40.18
41142;SHT31;63666;52.284;20.890;2023-03-21T12:28:08;22.79;40.21
41142;SHT31;63666;52.284;20.890;2023-03-21T12:31:05;22.77;40.30
41142;SHT31;63666;52.284;20.890;2023-03-21T12:34:02;22.78;40.26
41142;SHT31;63666;52.284;20.890;2023-03-21T12:36:54;22.83;40.29
41142;SHT31;63666;52.284;20.890;2023-03-21T12:39:45;22.88;40.21
41142;SHT31;63666;52.284;20.890;2023-03-21T12:42:31;22.92;40.13
41142;SHT31;63666;52.284;20.890;2023-03-21T12:45:24;22.96;40.11
41142;SHT31;63666;52.284;20.890;2023-03-21T12:48:18;22.97;40.10
41142;SHT31;63666;52.284;20.890;2023-03-21T12:51:01;22.94;40.21
41142;SHT31;63666;52.284;20.890;2023-03-21T12:53:48;22.99;40.06
41142;SHT31;63666;52.284;20.890;2023-03-21T12:56:26;22.99;39.99
41142;SHT31;63666;52.284;20.890;2023-03-21T12:59:08;22.98;40.00
41142;SHT31;63666;52.284;20.890;2023-03-21T13:02:02;22.99;39.94
41142;SHT31;63666;52.284;20.890;2023-03-21T13:04:58;22.98;39.93
41142;SHT31;63666;52.284;20.890;2023-03-21T13:07:48;22.91;40.01
41142;SHT31;63666;52.284;20.890;2023-03-21T13:10:27;22.85;40.11
41142;SHT31;63666;52.284;20.890;2023-03-21T13:13:05;22.84;40.14
41142;SHT31;63666;52.284;20.890;2023-03-21T13:15:54;22.82;40.12
41142;SHT31;63666;52.284;20.890;2023-03-21T13:18:50;22.80;40.11
41142;SHT31;63666;52.284;20.890;2023-03-21T13:21:39;22.80;40.09
41142;SHT31;63666;52.284;20.890;2023-03-21T13:24:26;22.80;40.09
41142;SHT31;63666;52.284;20.890;2023-03-21T13:27:14;22.80;40.04
41142;SHT31;63666;52.284;20.890;2023-03-21T13:30:00;22.81;39.95
41142;SHT31;63666;52.284;20.890;2023-03-21T13:32:51;22.78;40.00
41142;SHT31;63666;52.284;20.890;2023-03-21T13:35:38;22.75;40.01
41142;SHT31;63666;52.284;20.890;2023-03-21T13:38:16;22.73;40.12
41142;SHT31;63666;52.284;20.890;2023-03-21T13:40:57;22.71;40.10
41142;SHT31;63666;52.284;20.890;2023-03-21T13:43:41;22.72;40.02
41142;SHT31;63666;52.284;20.890;2023-03-21T13:46:35;22.73;40.00
41142;SHT31;63666;52.284;20.890;2023-03-21T13:49:28;22.71;39.98
41142;SHT31;63666;52.284;20.890;2023-03-21T13:55:02;22.56;40.20
41142;SHT31;63666;52.284;20.890;2023-03-21T13:57:52;22.55;40.21
41142;SHT31;63666;52.284;20.890;2023-03-21T14:00:30;22.52;40.24
41142;SHT31;63666;52.284;20.890;2023-03-21T14:03:15;22.50;40.22
41142;SHT31;63666;52.284;20.890;2023-03-21T14:05:54;22.60;40.03
41142;SHT31;63666;52.284;20.890;2023-03-21T14:08:33;22.56;40.05
41142;SHT31;63666;52.284;20.890;2023-03-21T14:11:12;22.50;40.19
41142;SHT31;63666;52.284;20.890;2023-03-21T14:13:50;22.50;40.17
41142;SHT31;63666;52.284;20.890;2023-03-21T14:16:30;22.51;40.14
41142;SHT31;63666;52.284;20.890;2023-03-21T14:19:09;22.49;40.19
41142;SHT31;63666;52.284;20.890;2023-03-21T14:21:47;22.47;40.20
41142;SHT31;63666;52.284;20.890;2023-03-21T14:24:23;22.47;40.14
41142;SHT31;63666;52.284;20.890;2023-03-21T14:27:02;22.47;40.09
41142;SHT31;63666;52.284;20.890;2023-03-21T14:29:43;22.47;40.80
41142;SHT31;63666;52.284;20.890;2023-03-21T14:32:21;22.46;41.60
41142;SHT31;63666;52.284;20.890;2023-03-21T14:35:01;22.43;41.97
41142;SHT31;63666;52.284;20.890;2023-03-21T14:37:43;22.41;41.81
41142;SHT31;63666;52.284;20.890;2023-03-21T14:40:22;22.41;41.42
41142;SHT31;63666;52.284;20.890;2023-03-21T14:43:03;22.37;41.21
41142;SHT31;63666;52.284;20.890;2023-03-21T14:45:45;22.38;41.17
41142;SHT31;63666;52.284;20.890;2023-03-21T14:48:30;22.36;40.92
41142;SHT31;63666;52.284;20.890;2023-03-21T14:51:09;22.33;41.02
41142;SHT31;63666;52.284;20.890;2023-03-21T14:53:45;22.29;40.94
41142;SHT31;63666;52.284;20.890;2023-03-21T14:56:23;22.28;40.96
41142;SHT31;63666;52.284;20.890;2023-03-21T14:58:58;22.28;40.86
41142;SHT31;63666;52.284;20.890;2023-03-21T15:01:36;22.28;40.80
41142;SHT31;63666;52.284;20.890;2023-03-21T15:04:16;22.28;40.78
41142;SHT31;63666;52.284;20.890;2023-03-21T15:06:56;22.26;40.78
41142;SHT31;63666;52.284;20.890;2023-03-21T15:09:34;22.25;40.81
41142;SHT31;63666;52.284;20.890;2023-03-21T15:12:14;22.24;40.89
41142;SHT31;63666;52.284;20.890;2023-03-21T15:14:54;22.22;40.83
41142;SHT31;63666;52.284;20.890;2023-03-21T15:17:32;22.20;40.93
41142;SHT31;63666;52.284;20.890;2023-03-21T15:20:09;22.22;40.97
41142;SHT31;63666;52.284;20.890;2023-03-21T15:22:47;22.25;40.94
41142;SHT31;63666;52.284;20.890;2023-03-21T15:25:26;22.29;40.77
41142;SHT31;63666;52.284;20.890;2023-03-21T15:28:07;22.36;40.67
41142;SHT31;63666;52.284;20.890;2023-03-21T15:30:51;22.40;40.44
41142;SHT31;63666;52.284;20.890;2023-03-21T15:33:29;22.43;40.40
41142;SHT31;63666;52.284;20.890;2023-03-21T15:36:08;22.47;40.34
41142;SHT31;63666;52.284;20.890;2023-03-21T15:38:54;22.49;40.37
41142;SHT31;63666;52.284;20.890;2023-03-21T15:41:36;22.50;40.38
41142;SHT31;63666;52.284;20.890;2023-03-21T15:44:13;22.51;40.40
41142;SHT31;63666;52.284;20.890;2023-03-21T15:46:50;22.51;40.39
41142;SHT31;63666;52.284;20.890;2023-03-21T15:49:28;22.53;40.36
41142;SHT31;63666;52.284;20.890;2023-03-21T15:52:09;22.52;40.36
41142;SHT31;63666;52.284;20.890;2023-03-21T15:54:47;22.52;40.41
41142;SHT31;63666;52.284;20.890;2023-03-21T15:57:26;22.51;40.45
41142;SHT31;63666;52.284;20.890;2023-03-21T16:00:13;22.49;40.46
41142;SHT31;63666;52.284;20.890;2023-03-21T16:03:12;22.48;40.50
41142;SHT31;63666;52.284;20.890;2023-03-21T16:06:02;22.47;40.52
41142;SHT31;63666;52.284;20.890;2023-03-21T16:08:50;22.46;40.58
41142;SHT31;63666;52.284;20.890;2023-03-21T16:11:39;22.42;40.65
41142;SHT31;63666;52.284;20.890;2023-03-21T16:14:18;22.42;40.69
41142;SHT31;63666;52.284;20.890;2023-03-21T16:16:57;22.43;40.72
41142;SHT31;63666;52.284;20.890;2023-03-21T16:19:34;22.41;40.77
41142;SHT31;63666;52.284;20.890;2023-03-21T16:22:12;22.39;40.78
41142;SHT31;63666;52.284;20.890;2023-03-21T16:24:53;22.36;40.81
41142;SHT31;63666;52.284;20.890;2023-03-21T16:27:31;22.33;40.85
41142;SHT31;63666;52.284;20.890;2023-03-21T16:30:07;22.28;40.91
41142;SHT31;63666;52.284;20.890;2023-03-21T16:32:44;22.25;40.97
41142;SHT31;63666;52.284;20.890;2023-03-21T16:35:23;22.20;41.10
41142;SHT31;63666;52.284;20.890;2023-03-21T16:38:02;22.18;41.17
41142;SHT31;63666;52.284;20.890;2023-03-21T16:40:38;22.13;41.21
41142;SHT31;63666;52.284;20.890;2023-03-21T16:43:14;22.09;41.30
41142;SHT31;63666;52.284;20.890;2023-03-21T16:45:51;22.06;41.36
41142;SHT31;63666;52.284;20.890;2023-03-21T16:48:27;22.01;41.46
41142;SHT31;63666;52.284;20.890;2023-03-21T16:51:03;21.95;41.60
41142;SHT31;63666;52.284;20.890;2023-03-21T16:53:44;21.92;41.69
41142;SHT31;63666;52.284;20.890;2023-03-21T16:56:22;21.89;41.74
41142;SHT31;63666;52.284;20.890;2023-03-21T16:59:01;21.82;41.86
41142;SHT31;63666;52.284;20.890;2023-03-21T17:01:37;21.78;41.95
41142;SHT31;63666;52.284;20.890;2023-03-21T17:04:17;21.74;42.04
41142;SHT31;63666;52.284;20.890;2023-03-21T17:06:58;21.71;42.09
41142;SHT31;63666;52.284;20.890;2023-03-21T17:09:36;21.69;42.16